Time;durP1;ratioP1;P1;durP2;ratioP2;P2;SDS_P1;SDS_P2;PMS_P1;PMS_P2;Temp;Humidity;BMP_temperature;BMP_pressure;BME280_temperature;BME280_humidity;BME280_pressure;Samples;Min_cycle;Max_cycle;Signal;HPM_P1;HPM_P2
2021/11/11 00:01:30;;;;;;;5.57;3.33;;;;;;;;;;4937198;29;20119;-74
2021/11/11 00:03:57;;;;;;;5.32;3.70;;;;;;;;;;4936962;29;20034;-73
2021/11/11 00:06:23;;;;;;;4.53;3.58;;;;;;;;;;4937619;29;20161;-74
2021/11/11 00:08:50;;;;;;;7.00;3.83;;;;;;;;;;4937294;29;20027;-74
2021/11/11 00:11:16;;;;;;;7.30;3.53;;;;;;;;;;4937727;29;20047;-75
2021/11/11 00:13:42;;;;;;;5.43;3.67;;;;;;;;;;4924267;29;20043;-74
2021/11/11 00:16:08;;;;;;;7.70;3.83;;;;;;;;;;4937383;29;20023;-75
2021/11/11 00:18:34;;;;;;;6.68;3.40;;;;;;;;;;4936694;29;20375;-75
2021/11/11 00:21:01;;;;;;;6.30;3.60;;;;;;;;;;4936929;29;20094;-77
2021/11/11 00:23:27;;;;;;;6.45;3.75;;;;;;;;;;4937005;29;20553;-76
2021/11/11 00:25:53;;;;;;;8.02;4.22;;;;;;;;;;4935292;29;20059;-74
2021/11/11 00:28:19;;;;;;;6.68;4.13;;;;;;;;;;4936791;29;20023;-74
2021/11/11 00:30:45;;;;;;;6.85;4.50;;;;;;;;;;4934852;29;20486;-74
2021/11/11 00:33:11;;;;;;;8.90;4.78;;;;;;;;;;4935868;29;20035;-74
2021/11/11 00:35:37;;;;;;;7.13;4.43;;;;;;;;;;4937087;29;20074;-75
2021/11/11 00:38:04;;;;;;;8.10;4.25;;;;;;;;;;4941242;29;20037;-75
2021/11/11 00:40:30;;;;;;;5.53;4.35;;;;;;;;;;4938733;29;20091;-75
2021/11/11 00:42:57;;;;;;;5.82;4.75;;;;;;;;;;4936941;29;20027;-76
2021/11/11 00:45:23;;;;;;;6.55;4.45;;;;;;;;;;4938994;29;20095;-74
2021/11/11 00:47:50;;;;;;;8.07;5.10;;;;;;;;;;4936564;29;20475;-75
2021/11/11 00:50:21;;;;;;;9.05;4.40;;;;;;;;;;4936624;29;20034;-74
2021/11/11 00:52:47;;;;;;;9.52;4.25;;;;;;;;;;4940564;29;20032;-74
2021/11/11 00:55:14;;;;;;;6.93;4.32;;;;;;;;;;4919239;29;20044;-74
2021/11/11 00:57:40;;;;;;;7.43;4.38;;;;;;;;;;4935730;29;20028;-76
2021/11/11 01:00:08;;;;;;;7.32;4.07;;;;;;;;;;4935423;29;20039;-73
2021/11/11 01:02:35;;;;;;;8.15;4.07;;;;;;;;;;4936009;29;20023;-75
2021/11/11 01:05:02;;;;;;;6.75;4.28;;;;;;;;;;4935959;29;20035;-75
2021/11/11 01:07:28;;;;;;;6.20;4.07;;;;;;;;;;4935873;29;20095;-74
2021/11/11 01:09:54;;;;;;;9.27;5.03;;;;;;;;;;4935379;29;20102;-75
2021/11/11 01:12:20;;;;;;;5.95;4.07;;;;;;;;;;4935928;29;20050;-75
2021/11/11 01:14:46;;;;;;;8.88;4.28;;;;;;;;;;4937410;29;20047;-76
2021/11/11 01:17:12;;;;;;;6.43;4.07;;;;;;;;;;4939515;29;20212;-74
2021/11/11 01:19:38;;;;;;;7.07;4.70;;;;;;;;;;4935762;29;20031;-74
2021/11/11 01:22:05;;;;;;;6.75;4.57;;;;;;;;;;4935553;29;20070;-75
2021/11/11 01:24:31;;;;;;;7.25;3.85;;;;;;;;;;4936532;29;20028;-75
2021/11/11 01:26:58;;;;;;;8.35;4.53;;;;;;;;;;4938184;29;20106;-73
2021/11/11 01:29:24;;;;;;;5.72;3.80;;;;;;;;;;4935240;29;20406;-74
2021/11/11 01:31:50;;;;;;;6.90;4.05;;;;;;;;;;4935197;29;20035;-76
2021/11/11 01:34:16;;;;;;;5.03;3.45;;;;;;;;;;4935534;29;20028;-74
2021/11/11 01:36:42;;;;;;;5.63;3.80;;;;;;;;;;4935767;29;20391;-75
2021/11/11 01:39:09;;;;;;;6.68;4.30;;;;;;;;;;4940108;29;20106;-75
2021/11/11 01:41:35;;;;;;;7.63;4.07;;;;;;;;;;4935802;29;20035;-74
2021/11/11 01:44:01;;;;;;;8.18;4.07;;;;;;;;;;4935189;29;20514;-74
2021/11/11 01:46:27;;;;;;;6.20;4.10;;;;;;;;;;4937148;29;20102;-75
2021/11/11 01:48:54;;;;;;;5.85;3.83;;;;;;;;;;4938543;29;20039;-76
2021/11/11 01:51:21;;;;;;;5.70;4.55;;;;;;;;;;4918093;29;20031;-74
2021/11/11 01:53:47;;;;;;;8.55;4.13;;;;;;;;;;4933457;29;20032;-76
2021/11/11 01:56:16;;;;;;;6.68;4.13;;;;;;;;;;4937996;29;20058;-75
2021/11/11 01:58:42;;;;;;;6.60;3.30;;;;;;;;;;4937467;29;20102;-74
2021/11/11 02:01:08;;;;;;;7.07;4.00;;;;;;;;;;4935015;29;20036;-74
2021/11/11 02:03:34;;;;;;;5.72;3.67;;;;;;;;;;4935374;29;20043;-74
2021/11/11 02:06:01;;;;;;;6.65;3.33;;;;;;;;;;4937148;29;20028;-73
2021/11/11 02:08:27;;;;;;;6.60;4.22;;;;;;;;;;4918740;29;20030;-77
2021/11/11 02:10:53;;;;;;;8.65;4.47;;;;;;;;;;4918320;29;20039;-74
2021/11/11 02:13:20;;;;;;;5.97;4.38;;;;;;;;;;4935168;29;20028;-74
2021/11/11 02:15:46;;;;;;;8.23;4.40;;;;;;;;;;4934465;29;20032;-76
2021/11/11 02:18:12;;;;;;;5.07;3.60;;;;;;;;;;4935518;29;20024;-75
2021/11/11 02:20:41;;;;;;;9.25;4.70;;;;;;;;;;4935291;29;20020;-75
2021/11/11 02:23:10;;;;;;;7.07;4.03;;;;;;;;;;4934690;29;20027;-74
2021/11/11 02:25:37;;;;;;;4.55;3.38;;;;;;;;;;4936213;29;20058;-74
2021/11/11 02:28:06;;;;;;;6.88;3.75;;;;;;;;;;4936142;29;20564;-74
2021/11/11 02:30:33;;;;;;;4.90;3.40;;;;;;;;;;4937080;29;20039;-74
2021/11/11 02:32:59;;;;;;;6.15;3.53;;;;;;;;;;4936320;29;20070;-74
2021/11/11 02:35:25;;;;;;;9.18;4.50;;;;;;;;;;4935986;29;20028;-75
2021/11/11 02:37:52;;;;;;;5.43;3.22;;;;;;;;;;4934874;29;20027;-77
2021/11/11 02:40:22;;;;;;;4.90;3.70;;;;;;;;;;4936150;29;20440;-75
2021/11/11 02:42:49;;;;;;;5.30;3.65;;;;;;;;;;4935151;29;20095;-74
2021/11/11 02:45:17;;;;;;;7.32;4.50;;;;;;;;;;4935538;29;20040;-74
2021/11/11 02:47:44;;;;;;;6.00;4.25;;;;;;;;;;4934599;29;20423;-74
2021/11/11 02:50:10;;;;;;;6.57;3.90;;;;;;;;;;4920742;29;20482;-74
2021/11/11 02:52:36;;;;;;;6.28;3.92;;;;;;;;;;4934477;29;20075;-74
2021/11/11 02:55:07;;;;;;;8.95;4.13;;;;;;;;;;4939352;29;20050;-74
2021/11/11 02:57:35;;;;;;;6.75;4.22;;;;;;;;;;4938117;29;20497;-75
2021/11/11 03:00:22;;;;;;;5.97;4.63;;;;;;;;;;4920622;29;20655;-74
2021/11/11 03:02:49;;;;;;;8.85;4.20;;;;;;;;;;4937776;29;20087;-74
2021/11/11 03:05:18;;;;;;;8.52;4.25;;;;;;;;;;4941781;29;20054;-74
2021/11/11 03:07:44;;;;;;;7.07;3.83;;;;;;;;;;4926854;29;20114;-74
2021/11/11 03:10:12;;;;;;;7.43;3.95;;;;;;;;;;4938276;29;20031;-75
2021/11/11 03:12:39;;;;;;;6.57;4.35;;;;;;;;;;4938104;29;20059;-74
2021/11/11 03:15:05;;;;;;;9.75;4.47;;;;;;;;;;4938026;29;20051;-75
2021/11/11 03:17:31;;;;;;;7.13;4.30;;;;;;;;;;4937614;29;20084;-75
2021/11/11 03:19:57;;;;;;;10.45;4.45;;;;;;;;;;4937706;29;20075;-76
2021/11/11 03:22:24;;;;;;;11.98;4.18;;;;;;;;;;4937521;29;20027;-74
2021/11/11 03:24:51;;;;;;;7.25;4.30;;;;;;;;;;4938290;29;20384;-74
2021/11/11 03:27:17;;;;;;;7.80;4.15;;;;;;;;;;4937747;29;20072;-74
2021/11/11 03:29:44;;;;;;;7.45;4.40;;;;;;;;;;4937896;29;20596;-74
2021/11/11 03:32:10;;;;;;;5.85;3.53;;;;;;;;;;4937487;29;20064;-74
2021/11/11 03:34:36;;;;;;;10.13;3.75;;;;;;;;;;4937624;29;20023;-74
2021/11/11 03:37:03;;;;;;;6.03;3.65;;;;;;;;;;4937771;29;20028;-74
2021/11/11 03:39:29;;;;;;;4.68;3.75;;;;;;;;;;4937243;29;20099;-75
2021/11/11 03:41:56;;;;;;;10.35;3.83;;;;;;;;;;4937167;29;20040;-74
2021/11/11 03:44:22;;;;;;;5.68;3.50;;;;;;;;;;4937279;29;20028;-74
2021/11/11 03:46:51;;;;;;;9.48;4.70;;;;;;;;;;4937540;29;20079;-74
2021/11/11 03:49:18;;;;;;;7.72;4.20;;;;;;;;;;4937395;29;20481;-75
2021/11/11 03:51:44;;;;;;;6.10;4.60;;;;;;;;;;4936493;29;20039;-74
2021/11/11 03:54:13;;;;;;;5.90;3.70;;;;;;;;;;4922008;29;20054;-74
2021/11/11 03:56:40;;;;;;;6.03;3.60;;;;;;;;;;4938223;29;20082;-75
2021/11/11 03:59:06;;;;;;;4.97;3.40;;;;;;;;;;4937090;29;20030;-75
2021/11/11 04:01:33;;;;;;;9.90;4.75;;;;;;;;;;4936347;29;20028;-75
2021/11/11 04:03:59;;;;;;;6.45;3.42;;;;;;;;;;4936515;29;20042;-74
2021/11/11 04:06:25;;;;;;;9.82;3.58;;;;;;;;;;4920476;29;20423;-75
2021/11/11 04:08:51;;;;;;;6.18;3.55;;;;;;;;;;4937281;29;20024;-75
2021/11/11 04:11:17;;;;;;;7.47;3.85;;;;;;;;;;4936367;29;20036;-75
2021/11/11 04:13:43;;;;;;;5.68;3.90;;;;;;;;;;4936793;29;20043;-74
2021/11/11 04:16:10;;;;;;;8.38;4.82;;;;;;;;;;4928905;29;20079;-74
2021/11/11 04:18:36;;;;;;;4.75;4.20;;;;;;;;;;4937740;29;20126;-75
2021/11/11 04:21:03;;;;;;;4.60;3.65;;;;;;;;;;4936457;29;20126;-74
2021/11/11 04:23:29;;;;;;;4.95;3.90;;;;;;;;;;4936455;29;20040;-75
2021/11/11 04:28:47;;;;;;;9.63;4.45;;;;;;;;;;4940659;29;20588;-76
2021/11/11 04:33:55;;;;;;;5.10;3.67;;;;;;;;;;4934706;29;20395;-75
2021/11/11 05:03:39;;;;;;;5.78;3.88;;;;;;;;;;4935820;29;20099;-75
2021/11/11 05:06:05;;;;;;;7.57;3.30;;;;;;;;;;4936052;29;20023;-74
2021/11/11 05:08:32;;;;;;;6.90;3.70;;;;;;;;;;4935788;29;20026;-74
2021/11/11 05:10:58;;;;;;;6.25;3.72;;;;;;;;;;4918770;29;20395;-75
2021/11/11 05:13:24;;;;;;;4.85;3.63;;;;;;;;;;4936213;29;20072;-74
2021/11/11 05:15:54;;;;;;;5.25;3.35;;;;;;;;;;4935185;29;20028;-74
2021/11/11 05:18:20;;;;;;;5.53;3.55;;;;;;;;;;4935600;29;20031;-74
2021/11/11 05:20:46;;;;;;;8.15;4.03;;;;;;;;;;4935543;29;20016;-76
2021/11/11 05:23:12;;;;;;;7.75;3.78;;;;;;;;;;4935991;29;20035;-74
2021/11/11 05:25:39;;;;;;;3.92;3.15;;;;;;;;;;4938075;29;20031;-75
2021/11/11 05:28:05;;;;;;;4.55;3.90;;;;;;;;;;4917710;29;20036;-74
2021/11/11 05:30:32;;;;;;;8.82;4.63;;;;;;;;;;4935410;29;20034;-76
2021/11/11 05:32:58;;;;;;;7.57;3.72;;;;;;;;;;4935140;29;20111;-74
2021/11/11 05:35:25;;;;;;;6.75;3.72;;;;;;;;;;4937732;29;20024;-75
2021/11/11 05:37:51;;;;;;;5.68;3.35;;;;;;;;;;4922876;29;20091;-73
2021/11/11 05:40:18;;;;;;;5.32;3.58;;;;;;;;;;4934810;29;20751;-75
2021/11/11 05:42:45;;;;;;;4.70;3.33;;;;;;;;;;4935336;29;20032;-74
2021/11/11 05:45:12;;;;;;;8.00;3.30;;;;;;;;;;4936803;29;20032;-75
2021/11/11 05:47:39;;;;;;;5.13;3.10;;;;;;;;;;4938470;29;20028;-74
2021/11/11 05:50:05;;;;;;;4.43;2.80;;;;;;;;;;4935135;29;20028;-74
2021/11/11 05:52:32;;;;;;;4.00;2.83;;;;;;;;;;4935285;29;20493;-77
2021/11/11 05:54:58;;;;;;;3.17;2.50;;;;;;;;;;4936504;29;20036;-75
2021/11/11 05:57:24;;;;;;;4.53;2.70;;;;;;;;;;4934974;29;20059;-75
2021/11/11 05:59:50;;;;;;;3.83;2.40;;;;;;;;;;4934855;29;20450;-75
2021/11/11 06:02:16;;;;;;;3.42;2.60;;;;;;;;;;4934843;29;20031;-75
2021/11/11 06:04:43;;;;;;;3.97;2.50;;;;;;;;;;4935207;29;20084;-74
2021/11/11 06:07:09;;;;;;;8.27;2.85;;;;;;;;;;4932941;29;20039;-74
2021/11/11 06:09:35;;;;;;;3.53;2.25;;;;;;;;;;4934170;29;20062;-74
2021/11/11 06:12:02;;;;;;;2.25;1.98;;;;;;;;;;4930260;29;20046;-75
2021/11/11 06:14:28;;;;;;;2.97;2.20;;;;;;;;;;4935135;29;20099;-74
2021/11/11 06:16:54;;;;;;;5.00;2.33;;;;;;;;;;4934845;29;20088;-74
2021/11/11 06:19:21;;;;;;;3.05;2.10;;;;;;;;;;4935263;29;20020;-74
2021/11/11 06:21:47;;;;;;;4.57;2.60;;;;;;;;;;4934390;29;20115;-74
2021/11/11 06:24:14;;;;;;;3.35;2.28;;;;;;;;;;4935146;29;20036;-74
2021/11/11 06:26:41;;;;;;;3.00;1.95;;;;;;;;;;4934926;29;20030;-75
2021/11/11 06:29:07;;;;;;;6.03;2.05;;;;;;;;;;4937317;29;20095;-76
2021/11/11 06:31:33;;;;;;;2.40;2.20;;;;;;;;;;4921200;29;20031;-75
2021/11/11 06:34:00;;;;;;;3.70;1.90;;;;;;;;;;4938338;29;20036;-75
2021/11/11 06:36:26;;;;;;;3.05;1.90;;;;;;;;;;4938497;29;20016;-75
2021/11/11 06:38:52;;;;;;;4.10;1.85;;;;;;;;;;4938337;29;20028;-75
2021/11/11 06:41:18;;;;;;;6.68;2.05;;;;;;;;;;4938207;29;20031;-75
2021/11/11 06:43:44;;;;;;;7.03;2.20;;;;;;;;;;4938257;29;20107;-76
2021/11/11 06:46:10;;;;;;;2.80;1.83;;;;;;;;;;4921329;29;20452;-74
2021/11/11 06:48:37;;;;;;;4.57;2.00;;;;;;;;;;4920867;29;20023;-75
2021/11/11 06:51:04;;;;;;;2.72;2.10;;;;;;;;;;4938094;29;20611;-74
2021/11/11 06:53:30;;;;;;;3.28;1.65;;;;;;;;;;4938572;29;20035;-74
2021/11/11 06:55:56;;;;;;;3.65;2.08;;;;;;;;;;4937398;29;20040;-73
2021/11/11 06:58:24;;;;;;;2.42;1.90;;;;;;;;;;4937948;29;20019;-75
2021/11/11 07:00:51;;;;;;;2.83;1.95;;;;;;;;;;4937951;29;20475;-74
2021/11/11 07:03:17;;;;;;;2.22;2.00;;;;;;;;;;4937298;29;20505;-75
2021/11/11 07:05:44;;;;;;;2.40;2.10;;;;;;;;;;4937199;29;20039;-75
2021/11/11 07:08:11;;;;;;;2.50;1.95;;;;;;;;;;4926750;29;20471;-75
2021/11/11 07:10:37;;;;;;;6.05;2.00;;;;;;;;;;4938648;29;20034;-75
2021/11/11 07:13:07;;;;;;;1.70;1.40;;;;;;;;;;4938597;29;20040;-75
2021/11/11 07:15:33;;;;;;;3.83;1.70;;;;;;;;;;4938731;29;20019;-76
2021/11/11 07:17:59;;;;;;;6.60;1.83;;;;;;;;;;4937678;29;20027;-75
2021/11/11 07:20:25;;;;;;;3.60;1.88;;;;;;;;;;4937656;29;20055;-75
2021/11/11 07:22:58;;;;;;;3.00;2.35;;;;;;;;;;4937981;29;20036;-74
2021/11/11 07:25:24;;;;;;;3.72;2.05;;;;;;;;;;4937966;29;20035;-73
2021/11/11 07:27:52;;;;;;;3.25;1.65;;;;;;;;;;4938642;29;20424;-75
2021/11/11 07:30:19;;;;;;;2.47;1.80;;;;;;;;;;4938253;29;20027;-74
2021/11/11 07:32:45;;;;;;;3.78;2.63;;;;;;;;;;4937326;29;20629;-74
2021/11/11 07:35:12;;;;;;;3.85;1.95;;;;;;;;;;4937396;29;20080;-75
2021/11/11 07:37:39;;;;;;;2.25;1.58;;;;;;;;;;4938051;29;20023;-75
2021/11/11 07:40:06;;;;;;;4.60;2.22;;;;;;;;;;4937136;29;20032;-75
2021/11/11 07:42:33;;;;;;;2.63;1.83;;;;;;;;;;4937350;29;20047;-75
2021/11/11 07:45:00;;;;;;;3.97;2.10;;;;;;;;;;4937152;29;20027;-74
2021/11/11 07:47:29;;;;;;;2.90;1.92;;;;;;;;;;4937970;29;20039;-74
2021/11/11 07:49:57;;;;;;;2.47;1.90;;;;;;;;;;4936972;29;20111;-75
2021/11/11 07:52:23;;;;;;;4.45;2.03;;;;;;;;;;4937206;29;20035;-75
2021/11/11 07:54:49;;;;;;;3.53;2.20;;;;;;;;;;4937817;29;20119;-75
2021/11/11 07:57:16;;;;;;;2.55;1.75;;;;;;;;;;4942151;29;20106;-74
2021/11/11 07:59:42;;;;;;;3.83;2.63;;;;;;;;;;4919794;29;20028;-74
2021/11/11 08:02:08;;;;;;;4.70;2.13;;;;;;;;;;4936566;29;20491;-76
2021/11/11 08:04:34;;;;;;;3.63;2.20;;;;;;;;;;4936908;29;20039;-74
2021/11/11 08:07:01;;;;;;;5.85;2.38;;;;;;;;;;4938324;29;20103;-73
2021/11/11 08:09:27;;;;;;;5.22;2.45;;;;;;;;;;4938259;29;20045;-75
2021/11/11 08:11:54;;;;;;;4.50;2.22;;;;;;;;;;4937664;29;20031;-74
2021/11/11 08:14:20;;;;;;;3.67;2.40;;;;;;;;;;4921385;29;20030;-74
2021/11/11 08:16:46;;;;;;;2.97;2.35;;;;;;;;;;4919990;29;20063;-76
2021/11/11 08:19:12;;;;;;;3.72;3.00;;;;;;;;;;4936744;29;20583;-74
2021/11/11 08:21:39;;;;;;;5.50;2.85;;;;;;;;;;4931897;29;20036;-74
2021/11/11 08:24:05;;;;;;;4.90;2.30;;;;;;;;;;4917266;29;20031;-74
2021/11/11 08:26:31;;;;;;;2.60;2.10;;;;;;;;;;4935420;29;20783;-75
2021/11/11 08:28:57;;;;;;;2.45;1.80;;;;;;;;;;4937062;29;20039;-74
2021/11/11 08:31:23;;;;;;;5.40;2.25;;;;;;;;;;4939302;29;20032;-73
2021/11/11 08:33:49;;;;;;;2.63;2.10;;;;;;;;;;4937193;29;20039;-75
2021/11/11 08:36:15;;;;;;;3.28;1.80;;;;;;;;;;4933003;29;20111;-75
2021/11/11 08:38:41;;;;;;;1.95;1.67;;;;;;;;;;4934523;29;20030;-74
2021/11/11 08:41:07;;;;;;;1.98;1.80;;;;;;;;;;4919026;29;20046;-75
2021/11/11 08:43:33;;;;;;;2.72;1.92;;;;;;;;;;4937714;29;20035;-77
2021/11/11 08:46:00;;;;;;;1.80;1.60;;;;;;;;;;4936663;29;20135;-74
2021/11/11 08:48:26;;;;;;;6.47;2.20;;;;;;;;;;4934829;29;20828;-75
2021/11/11 08:50:54;;;;;;;4.47;2.05;;;;;;;;;;4933263;29;20043;-75
2021/11/11 08:53:20;;;;;;;3.20;2.15;;;;;;;;;;4933465;29;20031;-76
2021/11/11 08:55:47;;;;;;;4.10;2.70;;;;;;;;;;4935099;29;20047;-76
2021/11/11 08:58:13;;;;;;;2.88;2.38;;;;;;;;;;4917475;29;20499;-77
2021/11/11 09:00:42;;;;;;;4.30;2.20;;;;;;;;;;4935636;29;20078;-75
2021/11/11 09:03:09;;;;;;;3.13;2.03;;;;;;;;;;4936152;29;20059;-75
2021/11/11 09:05:36;;;;;;;4.97;2.10;;;;;;;;;;4938476;29;20110;-76
2021/11/11 09:08:02;;;;;;;2.70;1.70;;;;;;;;;;4920303;29;20038;-77
2021/11/11 09:10:29;;;;;;;1.92;1.67;;;;;;;;;;4934043;29;20028;-75
2021/11/11 09:12:55;;;;;;;2.10;1.63;;;;;;;;;;4940464;29;20034;-76
2021/11/11 09:15:24;;;;;;;2.05;1.50;;;;;;;;;;4940793;29;20113;-76
2021/11/11 09:17:51;;;;;;;1.50;1.40;;;;;;;;;;4924426;29;20035;-77
2021/11/11 09:20:18;;;;;;;1.92;1.30;;;;;;;;;;4925436;29;20083;-76
2021/11/11 09:22:45;;;;;;;1.27;1.17;;;;;;;;;;4937036;29;20032;-76
2021/11/11 09:25:11;;;;;;;1.27;1.08;;;;;;;;;;4936650;29;20090;-76
2021/11/11 09:27:38;;;;;;;1.85;1.40;;;;;;;;;;4925327;29;20028;-75
2021/11/11 09:30:08;;;;;;;1.13;1.13;;;;;;;;;;4934173;29;20036;-77
2021/11/11 09:32:34;;;;;;;0.95;0.95;;;;;;;;;;4933527;29;20045;-76
2021/11/11 09:35:02;;;;;;;1.02;1.00;;;;;;;;;;4933999;29;20038;-76
2021/11/11 09:37:28;;;;;;;1.27;1.27;;;;;;;;;;4933213;29;20035;-76
2021/11/11 09:39:54;;;;;;;0.90;0.90;;;;;;;;;;4923996;29;20119;-76
2021/11/11 09:42:20;;;;;;;0.95;0.95;;;;;;;;;;4924612;29;20036;-79
2021/11/11 09:44:46;;;;;;;1.10;1.10;;;;;;;;;;4920161;29;20020;-75
2021/11/11 09:47:13;;;;;;;0.90;0.90;;;;;;;;;;4901960;29;20036;-75
2021/11/11 09:49:40;;;;;;;1.33;1.23;;;;;;;;;;4921596;29;20106;-75
2021/11/11 09:52:07;;;;;;;1.98;1.30;;;;;;;;;;4916392;29;20514;-76
2021/11/11 09:59:44;;;;;;;0.67;0.67;;;;;;;;;;4930413;29;20039;-75
2021/11/11 10:02:10;;;;;;;1.35;1.10;;;;;;;;;;4928137;29;20286;-76
2021/11/11 10:04:38;;;;;;;0.93;0.93;;;;;;;;;;4928168;29;20032;-77
2021/11/11 10:07:05;;;;;;;1.20;1.10;;;;;;;;;;4931628;29;20091;-77
2021/11/11 10:09:33;;;;;;;0.80;0.80;;;;;;;;;;4933202;29;20479;-78
2021/11/11 10:12:02;;;;;;;0.90;0.90;;;;;;;;;;4927352;29;20043;-77
2021/11/11 10:14:29;;;;;;;0.90;0.90;;;;;;;;;;4926963;29;20024;-75
2021/11/11 10:16:59;;;;;;;1.00;0.90;;;;;;;;;;4934742;29;20479;-75
2021/11/11 10:19:26;;;;;;;0.80;0.80;;;;;;;;;;4932486;29;20032;-75
2021/11/11 10:21:59;;;;;;;0.70;0.70;;;;;;;;;;4935648;29;20031;-76
2021/11/11 10:24:51;;;;;;;0.80;0.80;;;;;;;;;;4938566;29;20032;-78
2021/11/11 10:27:30;;;;;;;1.08;0.98;;;;;;;;;;4935480;29;20028;-75
2021/11/11 10:30:04;;;;;;;0.77;0.77;;;;;;;;;;4936447;29;20122;-75
2021/11/11 10:32:33;;;;;;;0.77;0.77;;;;;;;;;;4943770;29;20114;-76
2021/11/11 10:34:59;;;;;;;0.90;0.90;;;;;;;;;;4945605;29;20035;-77
2021/11/11 10:37:30;;;;;;;0.80;0.80;;;;;;;;;;4942464;29;20055;-75
2021/11/11 10:39:59;;;;;;;0.90;0.90;;;;;;;;;;4933698;29;20543;-76
2021/11/11 10:42:26;;;;;;;0.90;0.90;;;;;;;;;;4932654;29;20038;-75
2021/11/11 10:44:55;;;;;;;0.90;0.90;;;;;;;;;;4928684;29;20035;-75
2021/11/11 10:47:23;;;;;;;0.80;0.80;;;;;;;;;;4936072;29;20127;-78
2021/11/11 10:49:50;;;;;;;0.90;0.90;;;;;;;;;;4937066;29;20039;-76
2021/11/11 10:52:35;;;;;;;0.82;0.80;;;;;;;;;;4927810;29;20795;-77
2021/11/11 10:55:04;;;;;;;0.80;0.80;;;;;;;;;;4926006;29;20054;-76
2021/11/11 10:57:53;;;;;;;0.85;0.85;;;;;;;;;;4931746;29;20031;-77
2021/11/11 11:00:19;;;;;;;0.90;0.90;;;;;;;;;;4911232;29;20044;-75
2021/11/11 11:02:48;;;;;;;0.90;0.90;;;;;;;;;;4921980;29;20651;-75
2021/11/11 11:05:15;;;;;;;1.20;1.20;;;;;;;;;;4913053;29;20035;-74
2021/11/11 11:07:41;;;;;;;1.30;1.20;;;;;;;;;;4931481;29;20032;-75
2021/11/11 11:10:07;;;;;;;1.45;1.38;;;;;;;;;;4929285;29;20446;-74
2021/11/11 11:12:34;;;;;;;0.90;0.90;;;;;;;;;;4915880;29;20040;-74
2021/11/11 11:15:00;;;;;;;1.25;1.15;;;;;;;;;;4921555;29;20106;-74
2021/11/11 11:17:27;;;;;;;1.40;1.10;;;;;;;;;;4931551;29;20102;-75
2021/11/11 11:20:13;;;;;;;0.95;0.95;;;;;;;;;;4934301;29;20034;-75
2021/11/11 11:22:40;;;;;;;0.90;0.90;;;;;;;;;;4922051;29;20115;-74
2021/11/11 11:25:06;;;;;;;0.90;0.90;;;;;;;;;;4918089;29;20036;-74
2021/11/11 11:27:34;;;;;;;0.90;0.90;;;;;;;;;;4910485;29;20040;-76
2021/11/11 11:30:09;;;;;;;1.00;1.00;;;;;;;;;;4930837;29;20035;-74
2021/11/11 11:32:40;;;;;;;3.35;1.40;;;;;;;;;;4934338;29;20031;-75
2021/11/11 11:35:06;;;;;;;1.17;1.17;;;;;;;;;;4930004;29;20059;-75
2021/11/11 11:37:35;;;;;;;1.10;1.10;;;;;;;;;;4930286;29;20487;-74
2021/11/11 11:40:16;;;;;;;1.20;1.20;;;;;;;;;;4930125;29;20039;-76
2021/11/11 11:42:44;;;;;;;1.17;1.15;;;;;;;;;;4904136;29;20437;-76
2021/11/11 11:45:15;;;;;;;1.48;1.33;;;;;;;;;;4921788;29;20369;-74
2021/11/11 11:47:48;;;;;;;1.00;1.00;;;;;;;;;;4927889;29;20187;-74
2021/11/11 11:50:18;;;;;;;1.20;1.20;;;;;;;;;;4920116;29;20043;-76
2021/11/11 11:52:48;;;;;;;1.92;1.30;;;;;;;;;;4920338;29;20109;-74
2021/11/11 11:55:52;;;;;;;1.67;1.35;;;;;;;;;;4921593;29;20052;-74
2021/11/11 11:58:19;;;;;;;2.45;1.60;;;;;;;;;;4917811;29;21024;-76
2021/11/11 12:16:37;;;;;;;2.92;1.75;;;;;;;;;;4927764;29;20414;-75
2021/11/11 12:39:04;;;;;;;5.32;2.63;;;;;;;;;;4929770;29;20123;-76
2021/11/11 12:41:31;;;;;;;2.50;1.90;;;;;;;;;;4933561;29;20122;-76
2021/11/11 12:44:12;;;;;;;2.15;1.52;;;;;;;;;;4926242;29;20040;-76
2021/11/11 12:46:44;;;;;;;6.25;2.22;;;;;;;;;;4929626;29;20040;-75
2021/11/11 12:49:31;;;;;;;7.38;1.90;;;;;;;;;;4923409;29;20050;-74
2021/11/11 12:52:12;;;;;;;2.40;1.90;;;;;;;;;;4918904;29;20088;-74
2021/11/11 12:54:39;;;;;;;4.60;2.40;;;;;;;;;;4916368;29;20775;-75
2021/11/11 12:57:06;;;;;;;4.78;2.40;;;;;;;;;;4923448;29;20032;-75
2021/11/11 12:59:34;;;;;;;4.03;2.90;;;;;;;;;;4897086;29;20020;-75
2021/11/11 13:02:07;;;;;;;4.45;2.55;;;;;;;;;;4922571;29;20044;-75
2021/11/11 13:04:52;;;;;;;3.08;1.95;;;;;;;;;;4915129;29;20084;-75
2021/11/11 13:07:18;;;;;;;;;;;;;;;;;;4922565;29;20055;-76
2021/11/11 13:09:58;;;;;;;4.60;1.73;;;;;;;;;;4922545;29;19915;-75
2021/11/11 13:12:25;;;;;;;3.42;1.92;;;;;;;;;;4927320;29;20067;-75
2021/11/11 13:15:18;;;;;;;2.88;1.75;;;;;;;;;;4921816;29;20024;-75
2021/11/11 13:17:46;;;;;;;3.13;1.75;;;;;;;;;;4930223;29;20044;-76
2021/11/11 13:20:40;;;;;;;3.97;1.92;;;;;;;;;;4933467;29;20379;-77
2021/11/11 13:23:21;;;;;;;5.72;2.05;;;;;;;;;;4933007;29;20024;-74
2021/11/11 13:26:23;;;;;;;5.28;1.90;;;;;;;;;;4933162;29;20038;-76
2021/11/11 13:43:44;;;;;;;4.32;2.25;;;;;;;;;;4931229;29;20498;-75
2021/11/11 15:04:36;;;;;;;1.90;1.60;;;;;;;;;;4922502;29;20857;-74
2021/11/11 16:26:33;;;;;;;4.57;2.30;;;;;;;;;;4932913;29;20046;-76
2021/11/11 16:29:02;;;;;;;4.00;1.95;;;;;;;;;;4933486;29;20032;-76
2021/11/11 16:31:29;;;;;;;3.35;2.50;;;;;;;;;;4911665;29;20030;-77
2021/11/11 16:33:59;;;;;;;3.45;2.70;;;;;;;;;;4919430;29;20036;-76
2021/11/11 16:36:29;;;;;;;5.78;2.22;;;;;;;;;;4923944;29;20488;-76
2021/11/11 16:38:56;;;;;;;4.03;2.10;;;;;;;;;;4916028;29;20031;-74
2021/11/11 16:41:22;;;;;;;6.38;4.32;;;;;;;;;;4927179;29;20483;-76
2021/11/11 16:43:48;;;;;;;3.97;2.80;;;;;;;;;;4926587;29;20032;-75
2021/11/11 16:46:15;;;;;;;4.55;2.65;;;;;;;;;;4933425;29;20383;-76
2021/11/11 16:48:41;;;;;;;3.22;2.70;;;;;;;;;;4929768;29;20059;-75
2021/11/11 16:51:09;;;;;;;4.38;2.90;;;;;;;;;;4929737;29;20031;-74
2021/11/11 16:53:36;;;;;;;3.85;2.22;;;;;;;;;;4927045;29;20060;-75
2021/11/11 16:56:02;;;;;;;2.72;1.80;;;;;;;;;;4919382;29;20087;-75
2021/11/11 16:58:28;;;;;;;5.20;2.20;;;;;;;;;;4924281;29;20028;-74
2021/11/11 17:00:55;;;;;;;5.28;2.53;;;;;;;;;;4917833;29;20067;-75
2021/11/11 17:03:21;;;;;;;6.05;3.65;;;;;;;;;;4924869;29;20057;-75
2021/11/11 17:05:48;;;;;;;4.57;3.20;;;;;;;;;;4928464;29;20036;-76
2021/11/11 17:08:15;;;;;;;5.72;2.70;;;;;;;;;;4909434;29;20045;-75
2021/11/11 17:10:42;;;;;;;4.60;2.70;;;;;;;;;;4910011;29;20106;-75
2021/11/11 17:13:08;;;;;;;4.10;2.38;;;;;;;;;;4926541;29;20035;-75
2021/11/11 17:15:38;;;;;;;2.33;1.83;;;;;;;;;;4929394;29;20040;-77
2021/11/11 17:18:05;;;;;;;3.08;2.13;;;;;;;;;;4928530;29;20035;-77
2021/11/11 17:20:31;;;;;;;6.43;2.90;;;;;;;;;;4933218;29;20052;-75
2021/11/11 17:23:00;;;;;;;6.95;2.70;;;;;;;;;;4929447;29;20036;-75
2021/11/11 17:28:05;;;;;;;5.82;2.92;;;;;;;;;;4932913;29;20047;-77
2021/11/11 17:30:32;;;;;;;17.40;13.38;;;;;;;;;;4930849;29;20399;-74
2021/11/11 17:32:59;;;;;;;8.02;3.65;;;;;;;;;;4902241;29;20041;-77
2021/11/11 17:35:25;;;;;;;4.75;3.10;;;;;;;;;;4917091;29;20024;-76
2021/11/11 17:37:51;;;;;;;7.88;3.38;;;;;;;;;;4914174;29;20407;-76
2021/11/11 17:40:18;;;;;;;10.52;4.30;;;;;;;;;;4926210;29;20039;-73
2021/11/11 17:42:46;;;;;;;4.60;2.28;;;;;;;;;;4907019;29;20517;-75
2021/11/11 17:45:13;;;;;;;6.53;2.72;;;;;;;;;;4914444;29;20031;-76
2021/11/11 17:47:39;;;;;;;6.97;4.03;;;;;;;;;;4903763;29;20036;-76
2021/11/11 17:50:10;;;;;;;9.30;5.40;;;;;;;;;;4906492;29;20042;-76
2021/11/11 17:52:39;;;;;;;4.88;2.53;;;;;;;;;;4915539;29;20039;-76
2021/11/11 17:55:14;;;;;;;6.30;3.30;;;;;;;;;;4907865;29;20052;-75
2021/11/11 17:57:43;;;;;;;4.22;2.60;;;;;;;;;;4914331;29;20035;-75
2021/11/11 18:00:09;;;;;;;3.35;2.22;;;;;;;;;;4915013;29;20035;-78
2021/11/11 18:02:35;;;;;;;5.30;2.53;;;;;;;;;;4914970;29;20067;-75
2021/11/11 18:05:03;;;;;;;4.03;2.25;;;;;;;;;;4915331;29;20057;-75
2021/11/11 18:07:34;;;;;;;2.78;2.17;;;;;;;;;;4932035;29;20475;-75
2021/11/11 18:10:12;;;;;;;2.83;2.20;;;;;;;;;;4914949;29;20091;-76
2021/11/11 18:12:47;;;;;;;3.47;2.22;;;;;;;;;;4924524;29;20036;-76
2021/11/11 18:15:26;;;;;;;3.63;2.90;;;;;;;;;;4915491;29;20115;-74
2021/11/11 18:17:53;;;;;;;2.95;2.38;;;;;;;;;;4926771;29;20111;-76
2021/11/11 18:20:20;;;;;;;4.50;2.72;;;;;;;;;;4934634;29;20031;-77
2021/11/11 18:22:47;;;;;;;2.65;2.38;;;;;;;;;;4932325;29;20566;-75
2021/11/11 18:25:14;;;;;;;2.63;2.17;;;;;;;;;;4934828;29;20063;-77
2021/11/11 18:27:41;;;;;;;2.90;2.08;;;;;;;;;;4936150;29;20058;-76
2021/11/11 18:32:35;;;;;;;1.65;1.55;;;;;;;;;;4935931;29;20187;-76
2021/11/11 18:35:07;;;;;;;6.38;2.10;;;;;;;;;;4918705;29;20443;-76
2021/11/11 18:37:37;;;;;;;4.25;2.83;;;;;;;;;;4936631;29;20074;-76
2021/11/11 18:40:04;;;;;;;3.08;1.90;;;;;;;;;;4935541;29;20043;-76
2021/11/11 18:42:31;;;;;;;3.60;2.00;;;;;;;;;;4920355;29;20035;-76
2021/11/11 18:45:03;;;;;;;4.68;2.38;;;;;;;;;;4937131;29;20035;-74
2021/11/11 18:47:39;;;;;;;2.70;2.08;;;;;;;;;;4937025;29;20114;-75
2021/11/11 18:50:06;;;;;;;2.45;1.98;;;;;;;;;;4936700;29;20041;-76
2021/11/11 18:52:32;;;;;;;1.70;1.60;;;;;;;;;;4936650;29;20028;-76
2021/11/11 18:54:58;;;;;;;3.25;2.38;;;;;;;;;;4919516;29;20134;-78
2021/11/11 18:57:25;;;;;;;2.58;2.08;;;;;;;;;;4919628;29;20027;-77
2021/11/11 18:59:52;;;;;;;5.68;3.92;;;;;;;;;;4936286;29;20046;-76